<?xml version="1.0" encoding="UTF-8" standalone="no" ?>
<gpx xmlns="http://www.topografix.com/GPX/1/1" xmlns:xsi="http://www.w3.org/2001/XMLSchema-instance" xsi:schemaLocation="http://www.topografix.com/GPX/1/1 http://www.topografix.com/GPX/1/1/gpx.xsd" version="1.1" creator="VisuGPX - https://www.visugpx.com">
  <metadata>
    <name>83 - M - VERIGNON</name>
    <desc><![CDATA[VERIGNON - Chapelle st Priez - Chapelle Notre Dame de Liesse - Ruines du château]]></desc>
  </metadata>
  <wpt lat="43.65236" lon="6.2748">
    <ele>904</ele>
    <name><![CDATA[Point de passage 1]]></name>
    <type><![CDATA[GENERIC]]></type>
  </wpt>
  <wpt lat="43.65248" lon="6.27475">
    <ele>902</ele>
    <name><![CDATA[Point de passage 2]]></name>
    <type><![CDATA[GENERIC]]></type>
  </wpt>
  <trk>
    <name><![CDATA[Randonnée du 14/05/2025 à 14:19]]></name>
    <trkseg>
      <trkpt lat="43.65236" lon="6.2748">
        <ele>904</ele>
        <time>2025-05-14T12:19:12.000Z</time>
      </trkpt>
      <trkpt lat="43.65232" lon="6.27487">
        <ele>900</ele>
        <time>2025-05-14T12:19:18.000Z</time>
      </trkpt>
      <trkpt lat="43.65214" lon="6.27502">
        <ele>899</ele>
        <time>2025-05-14T12:21:00.000Z</time>
      </trkpt>
      <trkpt lat="43.65191" lon="6.27508">
        <ele>897</ele>
        <time>2025-05-14T12:21:30.000Z</time>
      </trkpt>
      <trkpt lat="43.6517" lon="6.27502">
        <ele>904</ele>
        <time>2025-05-14T12:21:54.000Z</time>
      </trkpt>
      <trkpt lat="43.65147" lon="6.27497">
        <ele>906</ele>
        <time>2025-05-14T12:22:21.000Z</time>
      </trkpt>
      <trkpt lat="43.65123" lon="6.27495">
        <ele>908</ele>
        <time>2025-05-14T12:22:48.000Z</time>
      </trkpt>
      <trkpt lat="43.65102" lon="6.27509">
        <ele>911</ele>
        <time>2025-05-14T12:23:12.000Z</time>
      </trkpt>
      <trkpt lat="43.65081" lon="6.2752">
        <ele>915</ele>
        <time>2025-05-14T12:23:39.000Z</time>
      </trkpt>
      <trkpt lat="43.65058" lon="6.27529">
        <ele>918</ele>
        <time>2025-05-14T12:24:06.000Z</time>
      </trkpt>
      <trkpt lat="43.65037" lon="6.27538">
        <ele>922</ele>
        <time>2025-05-14T12:24:27.000Z</time>
      </trkpt>
      <trkpt lat="43.65015" lon="6.27547">
        <ele>925</ele>
        <time>2025-05-14T12:25:30.000Z</time>
      </trkpt>
      <trkpt lat="43.64994" lon="6.2756">
        <ele>928</ele>
        <time>2025-05-14T12:25:57.000Z</time>
      </trkpt>
      <trkpt lat="43.64974" lon="6.27576">
        <ele>930</ele>
        <time>2025-05-14T12:26:19.000Z</time>
      </trkpt>
      <trkpt lat="43.64954" lon="6.27586">
        <ele>931</ele>
        <time>2025-05-14T12:26:49.000Z</time>
      </trkpt>
      <trkpt lat="43.64933" lon="6.27575">
        <ele>933</ele>
        <time>2025-05-14T12:27:28.000Z</time>
      </trkpt>
      <trkpt lat="43.6491" lon="6.27565">
        <ele>934</ele>
        <time>2025-05-14T12:27:55.000Z</time>
      </trkpt>
      <trkpt lat="43.64889" lon="6.27548">
        <ele>935</ele>
        <time>2025-05-14T12:28:25.000Z</time>
      </trkpt>
      <trkpt lat="43.64872" lon="6.27526">
        <ele>937</ele>
        <time>2025-05-14T12:28:55.000Z</time>
      </trkpt>
      <trkpt lat="43.64856" lon="6.27504">
        <ele>940</ele>
        <time>2025-05-14T12:29:22.000Z</time>
      </trkpt>
      <trkpt lat="43.64839" lon="6.27484">
        <ele>943</ele>
        <time>2025-05-14T12:29:58.000Z</time>
      </trkpt>
      <trkpt lat="43.64819" lon="6.27473">
        <ele>948</ele>
        <time>2025-05-14T12:30:28.000Z</time>
      </trkpt>
      <trkpt lat="43.64796" lon="6.27467">
        <ele>952</ele>
        <time>2025-05-14T12:30:55.000Z</time>
      </trkpt>
      <trkpt lat="43.64773" lon="6.27461">
        <ele>956</ele>
        <time>2025-05-14T12:31:37.000Z</time>
      </trkpt>
      <trkpt lat="43.64755" lon="6.27466">
        <ele>961</ele>
        <time>2025-05-14T12:32:04.000Z</time>
      </trkpt>
      <trkpt lat="43.6476" lon="6.27491">
        <ele>965</ele>
        <time>2025-05-14T12:32:40.000Z</time>
      </trkpt>
      <trkpt lat="43.6477" lon="6.2752">
        <ele>969</ele>
        <time>2025-05-14T12:33:07.000Z</time>
      </trkpt>
      <trkpt lat="43.64782" lon="6.27546">
        <ele>972</ele>
        <time>2025-05-14T12:33:34.000Z</time>
      </trkpt>
      <trkpt lat="43.64778" lon="6.27574">
        <ele>975</ele>
        <time>2025-05-14T12:34:10.000Z</time>
      </trkpt>
      <trkpt lat="43.64767" lon="6.27602">
        <ele>978</ele>
        <time>2025-05-14T12:35:10.000Z</time>
      </trkpt>
      <trkpt lat="43.64751" lon="6.27625">
        <ele>982</ele>
        <time>2025-05-14T12:35:49.000Z</time>
      </trkpt>
      <trkpt lat="43.64733" lon="6.27643">
        <ele>985</ele>
        <time>2025-05-14T12:36:28.000Z</time>
      </trkpt>
      <trkpt lat="43.64712" lon="6.2766">
        <ele>989</ele>
        <time>2025-05-14T12:37:01.000Z</time>
      </trkpt>
      <trkpt lat="43.64691" lon="6.27673">
        <ele>994</ele>
        <time>2025-05-14T12:37:28.000Z</time>
      </trkpt>
      <trkpt lat="43.64671" lon="6.2769">
        <ele>998</ele>
        <time>2025-05-14T12:38:19.000Z</time>
      </trkpt>
      <trkpt lat="43.6465" lon="6.27702">
        <ele>1002</ele>
        <time>2025-05-14T12:38:46.000Z</time>
      </trkpt>
      <trkpt lat="43.64628" lon="6.27713">
        <ele>1006</ele>
        <time>2025-05-14T12:39:19.000Z</time>
      </trkpt>
      <trkpt lat="43.64608" lon="6.27731">
        <ele>1010</ele>
        <time>2025-05-14T12:39:55.000Z</time>
      </trkpt>
      <trkpt lat="43.64586" lon="6.27744">
        <ele>1014</ele>
        <time>2025-05-14T12:40:43.000Z</time>
      </trkpt>
      <trkpt lat="43.64563" lon="6.27754">
        <ele>1018</ele>
        <time>2025-05-14T12:41:13.000Z</time>
      </trkpt>
      <trkpt lat="43.64541" lon="6.27754">
        <ele>1021</ele>
        <time>2025-05-14T12:41:55.000Z</time>
      </trkpt>
      <trkpt lat="43.64527" lon="6.27729">
        <ele>1024</ele>
        <time>2025-05-14T12:42:37.000Z</time>
      </trkpt>
      <trkpt lat="43.6452" lon="6.27699">
        <ele>1026</ele>
        <time>2025-05-14T12:43:13.000Z</time>
      </trkpt>
      <trkpt lat="43.64504" lon="6.27676">
        <ele>1027</ele>
        <time>2025-05-14T12:43:43.000Z</time>
      </trkpt>
      <trkpt lat="43.64489" lon="6.27654">
        <ele>1029</ele>
        <time>2025-05-14T12:44:10.000Z</time>
      </trkpt>
      <trkpt lat="43.64472" lon="6.2763">
        <ele>1031</ele>
        <time>2025-05-14T12:44:37.000Z</time>
      </trkpt>
      <trkpt lat="43.64453" lon="6.27614">
        <ele>1033</ele>
        <time>2025-05-14T12:45:13.000Z</time>
      </trkpt>
      <trkpt lat="43.64431" lon="6.27611">
        <ele>1035</ele>
        <time>2025-05-14T12:45:43.000Z</time>
      </trkpt>
      <trkpt lat="43.64412" lon="6.27626">
        <ele>1038</ele>
        <time>2025-05-14T12:46:10.000Z</time>
      </trkpt>
      <trkpt lat="43.64392" lon="6.27639">
        <ele>1041</ele>
        <time>2025-05-14T12:46:40.000Z</time>
      </trkpt>
      <trkpt lat="43.64375" lon="6.27661">
        <ele>1044</ele>
        <time>2025-05-14T12:47:10.000Z</time>
      </trkpt>
      <trkpt lat="43.64358" lon="6.27681">
        <ele>1047</ele>
        <time>2025-05-14T12:47:40.000Z</time>
      </trkpt>
      <trkpt lat="43.64337" lon="6.27695">
        <ele>1051</ele>
        <time>2025-05-14T12:48:34.000Z</time>
      </trkpt>
      <trkpt lat="43.64316" lon="6.27706">
        <ele>1055</ele>
        <time>2025-05-14T12:49:31.000Z</time>
      </trkpt>
      <trkpt lat="43.64295" lon="6.27716">
        <ele>1059</ele>
        <time>2025-05-14T12:50:16.000Z</time>
      </trkpt>
      <trkpt lat="43.64274" lon="6.27727">
        <ele>1063</ele>
        <time>2025-05-14T12:50:49.000Z</time>
      </trkpt>
      <trkpt lat="43.64251" lon="6.27733">
        <ele>1068</ele>
        <time>2025-05-14T12:51:40.000Z</time>
      </trkpt>
      <trkpt lat="43.64229" lon="6.27737">
        <ele>1072</ele>
        <time>2025-05-14T12:52:37.000Z</time>
      </trkpt>
      <trkpt lat="43.64207" lon="6.27746">
        <ele>1077</ele>
        <time>2025-05-14T12:53:07.000Z</time>
      </trkpt>
      <trkpt lat="43.64184" lon="6.27751">
        <ele>1081</ele>
        <time>2025-05-14T12:53:49.000Z</time>
      </trkpt>
      <trkpt lat="43.64164" lon="6.27747">
        <ele>1085</ele>
        <time>2025-05-14T12:54:25.000Z</time>
      </trkpt>
      <trkpt lat="43.6415" lon="6.27768">
        <ele>1088</ele>
        <time>2025-05-14T12:58:52.000Z</time>
      </trkpt>
      <trkpt lat="43.64136" lon="6.27796">
        <ele>1090</ele>
        <time>2025-05-14T12:59:22.000Z</time>
      </trkpt>
      <trkpt lat="43.64119" lon="6.27818">
        <ele>1092</ele>
        <time>2025-05-14T12:59:46.000Z</time>
      </trkpt>
      <trkpt lat="43.64098" lon="6.27835">
        <ele>1094</ele>
        <time>2025-05-14T13:00:10.000Z</time>
      </trkpt>
      <trkpt lat="43.64081" lon="6.27856">
        <ele>1097</ele>
        <time>2025-05-14T13:00:31.000Z</time>
      </trkpt>
      <trkpt lat="43.64063" lon="6.27876">
        <ele>1100</ele>
        <time>2025-05-14T13:00:58.000Z</time>
      </trkpt>
      <trkpt lat="43.64048" lon="6.27901">
        <ele>1103</ele>
        <time>2025-05-14T13:01:22.000Z</time>
      </trkpt>
      <trkpt lat="43.64039" lon="6.27929">
        <ele>1106</ele>
        <time>2025-05-14T13:01:58.000Z</time>
      </trkpt>
      <trkpt lat="43.6403" lon="6.27958">
        <ele>1108</ele>
        <time>2025-05-14T13:02:28.000Z</time>
      </trkpt>
      <trkpt lat="43.64012" lon="6.27977">
        <ele>1108</ele>
        <time>2025-05-14T13:03:01.000Z</time>
      </trkpt>
      <trkpt lat="43.63998" lon="6.2799">
        <ele>1106</ele>
        <time>2025-05-14T13:03:31.000Z</time>
      </trkpt>
      <trkpt lat="43.64013" lon="6.27976">
        <ele>1105</ele>
        <time>2025-05-14T13:08:25.000Z</time>
      </trkpt>
      <trkpt lat="43.6403" lon="6.27956">
        <ele>1103</ele>
        <time>2025-05-14T13:08:58.000Z</time>
      </trkpt>
      <trkpt lat="43.64038" lon="6.27927">
        <ele>1102</ele>
        <time>2025-05-14T13:09:25.000Z</time>
      </trkpt>
      <trkpt lat="43.64049" lon="6.279">
        <ele>1100</ele>
        <time>2025-05-14T13:09:58.000Z</time>
      </trkpt>
      <trkpt lat="43.64066" lon="6.27875">
        <ele>1098</ele>
        <time>2025-05-14T13:10:25.000Z</time>
      </trkpt>
      <trkpt lat="43.64084" lon="6.27855">
        <ele>1096</ele>
        <time>2025-05-14T13:10:52.000Z</time>
      </trkpt>
      <trkpt lat="43.64102" lon="6.27835">
        <ele>1094</ele>
        <time>2025-05-14T13:11:22.000Z</time>
      </trkpt>
      <trkpt lat="43.64121" lon="6.27818">
        <ele>1092</ele>
        <time>2025-05-14T13:11:46.000Z</time>
      </trkpt>
      <trkpt lat="43.64138" lon="6.27797">
        <ele>1090</ele>
        <time>2025-05-14T13:12:07.000Z</time>
      </trkpt>
      <trkpt lat="43.64152" lon="6.27772">
        <ele>1089</ele>
        <time>2025-05-14T13:12:31.000Z</time>
      </trkpt>
      <trkpt lat="43.64165" lon="6.27746">
        <ele>1088</ele>
        <time>2025-05-14T13:12:55.000Z</time>
      </trkpt>
      <trkpt lat="43.64182" lon="6.27722">
        <ele>1087</ele>
        <time>2025-05-14T13:13:19.000Z</time>
      </trkpt>
      <trkpt lat="43.64196" lon="6.27695">
        <ele>1087</ele>
        <time>2025-05-14T13:13:43.000Z</time>
      </trkpt>
      <trkpt lat="43.64214" lon="6.27673">
        <ele>1087</ele>
        <time>2025-05-14T13:14:07.000Z</time>
      </trkpt>
      <trkpt lat="43.64233" lon="6.27649">
        <ele>1089</ele>
        <time>2025-05-14T13:14:31.000Z</time>
      </trkpt>
      <trkpt lat="43.64247" lon="6.27623">
        <ele>1090</ele>
        <time>2025-05-14T13:14:58.000Z</time>
      </trkpt>
      <trkpt lat="43.64261" lon="6.27597">
        <ele>1092</ele>
        <time>2025-05-14T13:15:28.000Z</time>
      </trkpt>
      <trkpt lat="43.64269" lon="6.27566">
        <ele>1094</ele>
        <time>2025-05-14T13:15:58.000Z</time>
      </trkpt>
      <trkpt lat="43.64282" lon="6.27541">
        <ele>1095</ele>
        <time>2025-05-14T13:16:22.000Z</time>
      </trkpt>
      <trkpt lat="43.6429" lon="6.27513">
        <ele>1097</ele>
        <time>2025-05-14T13:16:46.000Z</time>
      </trkpt>
      <trkpt lat="43.64308" lon="6.27491">
        <ele>1099</ele>
        <time>2025-05-14T13:17:10.000Z</time>
      </trkpt>
      <trkpt lat="43.64328" lon="6.27472">
        <ele>1101</ele>
        <time>2025-05-14T13:17:34.000Z</time>
      </trkpt>
      <trkpt lat="43.64344" lon="6.27449">
        <ele>1104</ele>
        <time>2025-05-14T13:18:10.000Z</time>
      </trkpt>
      <trkpt lat="43.64359" lon="6.27424">
        <ele>1107</ele>
        <time>2025-05-14T13:18:43.000Z</time>
      </trkpt>
      <trkpt lat="43.64381" lon="6.27413">
        <ele>1109</ele>
        <time>2025-05-14T13:19:16.000Z</time>
      </trkpt>
      <trkpt lat="43.64399" lon="6.27394">
        <ele>1112</ele>
        <time>2025-05-14T13:19:40.000Z</time>
      </trkpt>
      <trkpt lat="43.64409" lon="6.27367">
        <ele>1115</ele>
        <time>2025-05-14T13:20:10.000Z</time>
      </trkpt>
      <trkpt lat="43.64427" lon="6.27347">
        <ele>1117</ele>
        <time>2025-05-14T13:20:40.000Z</time>
      </trkpt>
      <trkpt lat="43.64444" lon="6.27328">
        <ele>1118</ele>
        <time>2025-05-14T13:21:10.000Z</time>
      </trkpt>
      <trkpt lat="43.64451" lon="6.27298">
        <ele>1118</ele>
        <time>2025-05-14T13:21:34.000Z</time>
      </trkpt>
      <trkpt lat="43.64457" lon="6.27267">
        <ele>1116</ele>
        <time>2025-05-14T13:22:07.000Z</time>
      </trkpt>
      <trkpt lat="43.64472" lon="6.27246">
        <ele>1112</ele>
        <time>2025-05-14T13:26:07.000Z</time>
      </trkpt>
      <trkpt lat="43.64494" lon="6.27242">
        <ele>1108</ele>
        <time>2025-05-14T13:27:04.000Z</time>
      </trkpt>
      <trkpt lat="43.64515" lon="6.27234">
        <ele>1104</ele>
        <time>2025-05-14T13:28:22.000Z</time>
      </trkpt>
      <trkpt lat="43.64537" lon="6.27223">
        <ele>1100</ele>
        <time>2025-05-14T13:29:31.000Z</time>
      </trkpt>
      <trkpt lat="43.6456" lon="6.27222">
        <ele>1096</ele>
        <time>2025-05-14T13:30:22.000Z</time>
      </trkpt>
      <trkpt lat="43.64583" lon="6.27219">
        <ele>1092</ele>
        <time>2025-05-14T13:30:58.000Z</time>
      </trkpt>
      <trkpt lat="43.64605" lon="6.27209">
        <ele>1088</ele>
        <time>2025-05-14T13:31:28.000Z</time>
      </trkpt>
      <trkpt lat="43.64627" lon="6.27197">
        <ele>1085</ele>
        <time>2025-05-14T13:32:07.000Z</time>
      </trkpt>
      <trkpt lat="43.64644" lon="6.27176">
        <ele>1084</ele>
        <time>2025-05-14T13:32:43.000Z</time>
      </trkpt>
      <trkpt lat="43.64659" lon="6.27154">
        <ele>1083</ele>
        <time>2025-05-14T13:33:10.000Z</time>
      </trkpt>
      <trkpt lat="43.64679" lon="6.27137">
        <ele>1082</ele>
        <time>2025-05-14T13:33:31.000Z</time>
      </trkpt>
      <trkpt lat="43.64695" lon="6.27113">
        <ele>1082</ele>
        <time>2025-05-14T13:33:52.000Z</time>
      </trkpt>
      <trkpt lat="43.64712" lon="6.2709">
        <ele>1081</ele>
        <time>2025-05-14T13:34:19.000Z</time>
      </trkpt>
      <trkpt lat="43.64734" lon="6.27075">
        <ele>1079</ele>
        <time>2025-05-14T13:34:43.000Z</time>
      </trkpt>
      <trkpt lat="43.64757" lon="6.27071">
        <ele>1078</ele>
        <time>2025-05-14T13:35:10.000Z</time>
      </trkpt>
      <trkpt lat="43.64778" lon="6.27057">
        <ele>1077</ele>
        <time>2025-05-14T13:35:28.000Z</time>
      </trkpt>
      <trkpt lat="43.64797" lon="6.27039">
        <ele>1077</ele>
        <time>2025-05-14T13:35:52.000Z</time>
      </trkpt>
      <trkpt lat="43.64812" lon="6.27016">
        <ele>1077</ele>
        <time>2025-05-14T13:36:16.000Z</time>
      </trkpt>
      <trkpt lat="43.64828" lon="6.26991">
        <ele>1077</ele>
        <time>2025-05-14T13:36:40.000Z</time>
      </trkpt>
      <trkpt lat="43.6484" lon="6.26964">
        <ele>1077</ele>
        <time>2025-05-14T13:37:01.000Z</time>
      </trkpt>
      <trkpt lat="43.64854" lon="6.26937">
        <ele>1077</ele>
        <time>2025-05-14T13:37:28.000Z</time>
      </trkpt>
      <trkpt lat="43.64864" lon="6.26908">
        <ele>1076</ele>
        <time>2025-05-14T13:37:58.000Z</time>
      </trkpt>
      <trkpt lat="43.64874" lon="6.26879">
        <ele>1074</ele>
        <time>2025-05-14T13:40:22.000Z</time>
      </trkpt>
      <trkpt lat="43.64881" lon="6.26847">
        <ele>1072</ele>
        <time>2025-05-14T13:40:49.000Z</time>
      </trkpt>
      <trkpt lat="43.64888" lon="6.26817">
        <ele>1070</ele>
        <time>2025-05-14T13:41:37.000Z</time>
      </trkpt>
      <trkpt lat="43.64899" lon="6.2679">
        <ele>1067</ele>
        <time>2025-05-14T13:42:43.000Z</time>
      </trkpt>
      <trkpt lat="43.64909" lon="6.2676">
        <ele>1065</ele>
        <time>2025-05-14T13:43:16.000Z</time>
      </trkpt>
      <trkpt lat="43.64917" lon="6.26729">
        <ele>1063</ele>
        <time>2025-05-14T13:43:43.000Z</time>
      </trkpt>
      <trkpt lat="43.64924" lon="6.26699">
        <ele>1061</ele>
        <time>2025-05-14T13:44:10.000Z</time>
      </trkpt>
      <trkpt lat="43.64936" lon="6.26671">
        <ele>1059</ele>
        <time>2025-05-14T13:44:37.000Z</time>
      </trkpt>
      <trkpt lat="43.64948" lon="6.26646">
        <ele>1056</ele>
        <time>2025-05-14T13:45:04.000Z</time>
      </trkpt>
      <trkpt lat="43.64956" lon="6.26617">
        <ele>1054</ele>
        <time>2025-05-14T13:45:28.000Z</time>
      </trkpt>
      <trkpt lat="43.64968" lon="6.26592">
        <ele>1051</ele>
        <time>2025-05-14T13:45:52.000Z</time>
      </trkpt>
      <trkpt lat="43.6498" lon="6.26565">
        <ele>1048</ele>
        <time>2025-05-14T13:46:25.000Z</time>
      </trkpt>
      <trkpt lat="43.64992" lon="6.26538">
        <ele>1045</ele>
        <time>2025-05-14T13:47:13.000Z</time>
      </trkpt>
      <trkpt lat="43.64998" lon="6.26508">
        <ele>1044</ele>
        <time>2025-05-14T13:47:46.000Z</time>
      </trkpt>
      <trkpt lat="43.65007" lon="6.26476">
        <ele>1044</ele>
        <time>2025-05-14T13:48:22.000Z</time>
      </trkpt>
      <trkpt lat="43.65013" lon="6.26442">
        <ele>1044</ele>
        <time>2025-05-14T13:48:43.000Z</time>
      </trkpt>
      <trkpt lat="43.65016" lon="6.26412">
        <ele>1045</ele>
        <time>2025-05-14T13:49:07.000Z</time>
      </trkpt>
      <trkpt lat="43.65023" lon="6.26382">
        <ele>1045</ele>
        <time>2025-05-14T13:49:37.000Z</time>
      </trkpt>
      <trkpt lat="43.65029" lon="6.26352">
        <ele>1045</ele>
        <time>2025-05-14T13:50:58.000Z</time>
      </trkpt>
      <trkpt lat="43.65031" lon="6.26321">
        <ele>1045</ele>
        <time>2025-05-14T13:51:22.000Z</time>
      </trkpt>
      <trkpt lat="43.65035" lon="6.2629">
        <ele>1044</ele>
        <time>2025-05-14T13:51:46.000Z</time>
      </trkpt>
      <trkpt lat="43.65041" lon="6.26259">
        <ele>1042</ele>
        <time>2025-05-14T13:52:13.000Z</time>
      </trkpt>
      <trkpt lat="43.65048" lon="6.26229">
        <ele>1040</ele>
        <time>2025-05-14T13:52:44.000Z</time>
      </trkpt>
      <trkpt lat="43.6505" lon="6.26198">
        <ele>1038</ele>
        <time>2025-05-14T13:53:11.000Z</time>
      </trkpt>
      <trkpt lat="43.65052" lon="6.26167">
        <ele>1035</ele>
        <time>2025-05-14T13:53:41.000Z</time>
      </trkpt>
      <trkpt lat="43.65063" lon="6.2614">
        <ele>1032</ele>
        <time>2025-05-14T13:54:14.000Z</time>
      </trkpt>
      <trkpt lat="43.65071" lon="6.2611">
        <ele>1030</ele>
        <time>2025-05-14T13:54:41.000Z</time>
      </trkpt>
      <trkpt lat="43.65084" lon="6.26082">
        <ele>1029</ele>
        <time>2025-05-14T13:55:11.000Z</time>
      </trkpt>
      <trkpt lat="43.65093" lon="6.26051">
        <ele>1029</ele>
        <time>2025-05-14T13:55:35.000Z</time>
      </trkpt>
      <trkpt lat="43.65096" lon="6.26017">
        <ele>1027</ele>
        <time>2025-05-14T13:55:59.000Z</time>
      </trkpt>
      <trkpt lat="43.65102" lon="6.25986">
        <ele>1026</ele>
        <time>2025-05-14T13:56:20.000Z</time>
      </trkpt>
      <trkpt lat="43.65114" lon="6.25959">
        <ele>1024</ele>
        <time>2025-05-14T13:56:41.000Z</time>
      </trkpt>
      <trkpt lat="43.6512" lon="6.25927">
        <ele>1022</ele>
        <time>2025-05-14T13:57:08.000Z</time>
      </trkpt>
      <trkpt lat="43.65124" lon="6.25896">
        <ele>1021</ele>
        <time>2025-05-14T13:57:41.000Z</time>
      </trkpt>
      <trkpt lat="43.65128" lon="6.25864">
        <ele>1020</ele>
        <time>2025-05-14T13:58:38.000Z</time>
      </trkpt>
      <trkpt lat="43.65128" lon="6.25832">
        <ele>1020</ele>
        <time>2025-05-14T13:59:05.000Z</time>
      </trkpt>
      <trkpt lat="43.65125" lon="6.25802">
        <ele>1019</ele>
        <time>2025-05-14T13:59:35.000Z</time>
      </trkpt>
      <trkpt lat="43.65118" lon="6.25772">
        <ele>1019</ele>
        <time>2025-05-14T14:00:02.000Z</time>
      </trkpt>
      <trkpt lat="43.65115" lon="6.25739">
        <ele>1018</ele>
        <time>2025-05-14T14:00:29.000Z</time>
      </trkpt>
      <trkpt lat="43.65109" lon="6.25708">
        <ele>1016</ele>
        <time>2025-05-14T14:00:53.000Z</time>
      </trkpt>
      <trkpt lat="43.65096" lon="6.25686">
        <ele>1015</ele>
        <time>2025-05-14T14:01:20.000Z</time>
      </trkpt>
      <trkpt lat="43.65106" lon="6.25662">
        <ele>1014</ele>
        <time>2025-05-14T14:02:02.000Z</time>
      </trkpt>
      <trkpt lat="43.65121" lon="6.25639">
        <ele>1012</ele>
        <time>2025-05-14T14:02:23.000Z</time>
      </trkpt>
      <trkpt lat="43.65127" lon="6.2561">
        <ele>1011</ele>
        <time>2025-05-14T14:02:47.000Z</time>
      </trkpt>
      <trkpt lat="43.65145" lon="6.25592">
        <ele>1009</ele>
        <time>2025-05-14T14:03:13.000Z</time>
      </trkpt>
      <trkpt lat="43.65166" lon="6.25577">
        <ele>1007</ele>
        <time>2025-05-14T14:03:40.000Z</time>
      </trkpt>
      <trkpt lat="43.65188" lon="6.2557">
        <ele>1006</ele>
        <time>2025-05-14T14:05:13.000Z</time>
      </trkpt>
      <trkpt lat="43.65206" lon="6.25549">
        <ele>1006</ele>
        <time>2025-05-14T14:06:52.000Z</time>
      </trkpt>
      <trkpt lat="43.65222" lon="6.25527">
        <ele>1005</ele>
        <time>2025-05-14T14:07:13.000Z</time>
      </trkpt>
      <trkpt lat="43.65239" lon="6.25505">
        <ele>1004</ele>
        <time>2025-05-14T14:07:37.000Z</time>
      </trkpt>
      <trkpt lat="43.6526" lon="6.25495">
        <ele>1003</ele>
        <time>2025-05-14T14:08:01.000Z</time>
      </trkpt>
      <trkpt lat="43.65276" lon="6.25473">
        <ele>1003</ele>
        <time>2025-05-14T14:08:22.000Z</time>
      </trkpt>
      <trkpt lat="43.65296" lon="6.25455">
        <ele>1003</ele>
        <time>2025-05-14T14:08:46.000Z</time>
      </trkpt>
      <trkpt lat="43.65315" lon="6.25443">
        <ele>1004</ele>
        <time>2025-05-14T14:09:13.000Z</time>
      </trkpt>
      <trkpt lat="43.6532" lon="6.25413">
        <ele>1006</ele>
        <time>2025-05-14T14:09:34.000Z</time>
      </trkpt>
      <trkpt lat="43.65322" lon="6.25381">
        <ele>1008</ele>
        <time>2025-05-14T14:09:58.000Z</time>
      </trkpt>
      <trkpt lat="43.65325" lon="6.2535">
        <ele>1011</ele>
        <time>2025-05-14T14:10:19.000Z</time>
      </trkpt>
      <trkpt lat="43.65332" lon="6.25319">
        <ele>1013</ele>
        <time>2025-05-14T14:10:49.000Z</time>
      </trkpt>
      <trkpt lat="43.6534" lon="6.25288">
        <ele>1016</ele>
        <time>2025-05-14T14:11:19.000Z</time>
      </trkpt>
      <trkpt lat="43.65349" lon="6.2526">
        <ele>1018</ele>
        <time>2025-05-14T14:11:49.000Z</time>
      </trkpt>
      <trkpt lat="43.65354" lon="6.25229">
        <ele>1020</ele>
        <time>2025-05-14T14:12:22.000Z</time>
      </trkpt>
      <trkpt lat="43.65365" lon="6.25202">
        <ele>1022</ele>
        <time>2025-05-14T14:12:46.000Z</time>
      </trkpt>
      <trkpt lat="43.65376" lon="6.25174">
        <ele>1024</ele>
        <time>2025-05-14T14:13:07.000Z</time>
      </trkpt>
      <trkpt lat="43.65375" lon="6.25143">
        <ele>1026</ele>
        <time>2025-05-14T14:13:28.000Z</time>
      </trkpt>
      <trkpt lat="43.65367" lon="6.25114">
        <ele>1027</ele>
        <time>2025-05-14T14:13:49.000Z</time>
      </trkpt>
      <trkpt lat="43.65365" lon="6.25083">
        <ele>1029</ele>
        <time>2025-05-14T14:14:13.000Z</time>
      </trkpt>
      <trkpt lat="43.65368" lon="6.25053">
        <ele>1030</ele>
        <time>2025-05-14T14:14:40.000Z</time>
      </trkpt>
      <trkpt lat="43.65364" lon="6.25023">
        <ele>1031</ele>
        <time>2025-05-14T14:15:04.000Z</time>
      </trkpt>
      <trkpt lat="43.65358" lon="6.24992">
        <ele>1032</ele>
        <time>2025-05-14T14:15:36.000Z</time>
      </trkpt>
      <trkpt lat="43.65354" lon="6.24969">
        <ele>1032</ele>
        <time>2025-05-14T14:16:27.000Z</time>
      </trkpt>
      <trkpt lat="43.65358" lon="6.24993">
        <ele>1031</ele>
        <time>2025-05-14T14:25:15.000Z</time>
      </trkpt>
      <trkpt lat="43.65362" lon="6.25025">
        <ele>1031</ele>
        <time>2025-05-14T14:25:45.000Z</time>
      </trkpt>
      <trkpt lat="43.65365" lon="6.25058">
        <ele>1030</ele>
        <time>2025-05-14T14:26:19.000Z</time>
      </trkpt>
      <trkpt lat="43.65364" lon="6.2509">
        <ele>1029</ele>
        <time>2025-05-14T14:26:46.000Z</time>
      </trkpt>
      <trkpt lat="43.65368" lon="6.25122">
        <ele>1028</ele>
        <time>2025-05-14T14:27:07.000Z</time>
      </trkpt>
      <trkpt lat="43.65375" lon="6.25153">
        <ele>1026</ele>
        <time>2025-05-14T14:27:31.000Z</time>
      </trkpt>
      <trkpt lat="43.65373" lon="6.25183">
        <ele>1024</ele>
        <time>2025-05-14T14:27:52.000Z</time>
      </trkpt>
      <trkpt lat="43.65359" lon="6.25206">
        <ele>1021</ele>
        <time>2025-05-14T14:28:13.000Z</time>
      </trkpt>
      <trkpt lat="43.65352" lon="6.25235">
        <ele>1018</ele>
        <time>2025-05-14T14:28:31.000Z</time>
      </trkpt>
      <trkpt lat="43.65345" lon="6.25265">
        <ele>1015</ele>
        <time>2025-05-14T14:28:58.000Z</time>
      </trkpt>
      <trkpt lat="43.65337" lon="6.25294">
        <ele>1013</ele>
        <time>2025-05-14T14:29:28.000Z</time>
      </trkpt>
      <trkpt lat="43.65327" lon="6.25323">
        <ele>1010</ele>
        <time>2025-05-14T14:29:52.000Z</time>
      </trkpt>
      <trkpt lat="43.65325" lon="6.25356">
        <ele>1008</ele>
        <time>2025-05-14T14:30:13.000Z</time>
      </trkpt>
      <trkpt lat="43.65322" lon="6.2539">
        <ele>1006</ele>
        <time>2025-05-14T14:30:34.000Z</time>
      </trkpt>
      <trkpt lat="43.6532" lon="6.25422">
        <ele>1005</ele>
        <time>2025-05-14T14:30:55.000Z</time>
      </trkpt>
      <trkpt lat="43.65317" lon="6.25454">
        <ele>1003</ele>
        <time>2025-05-14T14:31:13.000Z</time>
      </trkpt>
      <trkpt lat="43.65318" lon="6.25485">
        <ele>1002</ele>
        <time>2025-05-14T14:31:43.000Z</time>
      </trkpt>
      <trkpt lat="43.65316" lon="6.25517">
        <ele>1000</ele>
        <time>2025-05-14T14:32:07.000Z</time>
      </trkpt>
      <trkpt lat="43.65312" lon="6.25549">
        <ele>999</ele>
        <time>2025-05-14T14:32:28.000Z</time>
      </trkpt>
      <trkpt lat="43.65305" lon="6.25579">
        <ele>998</ele>
        <time>2025-05-14T14:32:49.000Z</time>
      </trkpt>
      <trkpt lat="43.65294" lon="6.25609">
        <ele>995</ele>
        <time>2025-05-14T14:33:10.000Z</time>
      </trkpt>
      <trkpt lat="43.6529" lon="6.2564">
        <ele>992</ele>
        <time>2025-05-14T14:33:31.000Z</time>
      </trkpt>
      <trkpt lat="43.65298" lon="6.2567">
        <ele>989</ele>
        <time>2025-05-14T14:33:52.000Z</time>
      </trkpt>
      <trkpt lat="43.65305" lon="6.25699">
        <ele>985</ele>
        <time>2025-05-14T14:34:16.000Z</time>
      </trkpt>
      <trkpt lat="43.653" lon="6.25728">
        <ele>982</ele>
        <time>2025-05-14T14:34:49.000Z</time>
      </trkpt>
      <trkpt lat="43.65284" lon="6.2575">
        <ele>979</ele>
        <time>2025-05-14T14:35:16.000Z</time>
      </trkpt>
      <trkpt lat="43.65266" lon="6.25768">
        <ele>977</ele>
        <time>2025-05-14T14:35:37.000Z</time>
      </trkpt>
      <trkpt lat="43.65247" lon="6.2579">
        <ele>975</ele>
        <time>2025-05-14T14:36:01.000Z</time>
      </trkpt>
      <trkpt lat="43.65241" lon="6.25822">
        <ele>974</ele>
        <time>2025-05-14T14:36:25.000Z</time>
      </trkpt>
      <trkpt lat="43.65246" lon="6.25854">
        <ele>972</ele>
        <time>2025-05-14T14:36:49.000Z</time>
      </trkpt>
      <trkpt lat="43.65263" lon="6.25875">
        <ele>971</ele>
        <time>2025-05-14T14:37:10.000Z</time>
      </trkpt>
      <trkpt lat="43.65283" lon="6.25895">
        <ele>970</ele>
        <time>2025-05-14T14:37:31.000Z</time>
      </trkpt>
      <trkpt lat="43.65302" lon="6.25912">
        <ele>968</ele>
        <time>2025-05-14T14:37:49.000Z</time>
      </trkpt>
      <trkpt lat="43.65321" lon="6.25929">
        <ele>967</ele>
        <time>2025-05-14T14:38:07.000Z</time>
      </trkpt>
      <trkpt lat="43.6534" lon="6.2595">
        <ele>966</ele>
        <time>2025-05-14T14:38:28.000Z</time>
      </trkpt>
      <trkpt lat="43.6536" lon="6.25968">
        <ele>964</ele>
        <time>2025-05-14T14:38:46.000Z</time>
      </trkpt>
      <trkpt lat="43.65378" lon="6.25989">
        <ele>962</ele>
        <time>2025-05-14T14:39:07.000Z</time>
      </trkpt>
      <trkpt lat="43.65395" lon="6.26014">
        <ele>958</ele>
        <time>2025-05-14T14:39:28.000Z</time>
      </trkpt>
      <trkpt lat="43.65407" lon="6.26041">
        <ele>954</ele>
        <time>2025-05-14T14:39:52.000Z</time>
      </trkpt>
      <trkpt lat="43.65411" lon="6.26072">
        <ele>950</ele>
        <time>2025-05-14T14:40:16.000Z</time>
      </trkpt>
      <trkpt lat="43.65404" lon="6.26103">
        <ele>946</ele>
        <time>2025-05-14T14:40:40.000Z</time>
      </trkpt>
      <trkpt lat="43.65395" lon="6.26131">
        <ele>941</ele>
        <time>2025-05-14T14:41:01.000Z</time>
      </trkpt>
      <trkpt lat="43.65393" lon="6.26161">
        <ele>937</ele>
        <time>2025-05-14T14:41:28.000Z</time>
      </trkpt>
      <trkpt lat="43.65408" lon="6.26183">
        <ele>933</ele>
        <time>2025-05-14T14:42:01.000Z</time>
      </trkpt>
      <trkpt lat="43.65417" lon="6.26212">
        <ele>929</ele>
        <time>2025-05-14T14:42:40.000Z</time>
      </trkpt>
      <trkpt lat="43.65419" lon="6.26244">
        <ele>926</ele>
        <time>2025-05-14T14:43:07.000Z</time>
      </trkpt>
      <trkpt lat="43.65426" lon="6.26275">
        <ele>923</ele>
        <time>2025-05-14T14:43:34.000Z</time>
      </trkpt>
      <trkpt lat="43.65427" lon="6.26305">
        <ele>920</ele>
        <time>2025-05-14T14:43:55.000Z</time>
      </trkpt>
      <trkpt lat="43.65441" lon="6.26328">
        <ele>916</ele>
        <time>2025-05-14T14:44:14.000Z</time>
      </trkpt>
      <trkpt lat="43.65461" lon="6.26347">
        <ele>913</ele>
        <time>2025-05-14T14:44:35.000Z</time>
      </trkpt>
      <trkpt lat="43.6548" lon="6.26369">
        <ele>910</ele>
        <time>2025-05-14T14:44:56.000Z</time>
      </trkpt>
      <trkpt lat="43.65497" lon="6.26393">
        <ele>907</ele>
        <time>2025-05-14T14:45:17.000Z</time>
      </trkpt>
      <trkpt lat="43.65516" lon="6.26412">
        <ele>904</ele>
        <time>2025-05-14T14:45:38.000Z</time>
      </trkpt>
      <trkpt lat="43.65537" lon="6.26427">
        <ele>902</ele>
        <time>2025-05-14T14:45:56.000Z</time>
      </trkpt>
      <trkpt lat="43.65559" lon="6.26441">
        <ele>899</ele>
        <time>2025-05-14T14:46:14.000Z</time>
      </trkpt>
      <trkpt lat="43.65582" lon="6.26454">
        <ele>896</ele>
        <time>2025-05-14T14:46:35.000Z</time>
      </trkpt>
      <trkpt lat="43.65604" lon="6.26468">
        <ele>893</ele>
        <time>2025-05-14T14:46:53.000Z</time>
      </trkpt>
      <trkpt lat="43.65621" lon="6.26493">
        <ele>890</ele>
        <time>2025-05-14T14:47:14.000Z</time>
      </trkpt>
      <trkpt lat="43.65632" lon="6.26522">
        <ele>888</ele>
        <time>2025-05-14T14:49:23.000Z</time>
      </trkpt>
      <trkpt lat="43.65637" lon="6.26553">
        <ele>886</ele>
        <time>2025-05-14T14:49:41.000Z</time>
      </trkpt>
      <trkpt lat="43.65634" lon="6.26585">
        <ele>886</ele>
        <time>2025-05-14T14:50:02.000Z</time>
      </trkpt>
      <trkpt lat="43.65622" lon="6.2661">
        <ele>885</ele>
        <time>2025-05-14T14:50:44.000Z</time>
      </trkpt>
      <trkpt lat="43.65604" lon="6.26632">
        <ele>884</ele>
        <time>2025-05-14T14:51:08.000Z</time>
      </trkpt>
      <trkpt lat="43.65589" lon="6.26656">
        <ele>884</ele>
        <time>2025-05-14T14:51:26.000Z</time>
      </trkpt>
      <trkpt lat="43.65574" lon="6.26682">
        <ele>884</ele>
        <time>2025-05-14T14:51:47.000Z</time>
      </trkpt>
      <trkpt lat="43.6556" lon="6.26711">
        <ele>885</ele>
        <time>2025-05-14T14:52:08.000Z</time>
      </trkpt>
      <trkpt lat="43.65547" lon="6.26737">
        <ele>886</ele>
        <time>2025-05-14T14:52:29.000Z</time>
      </trkpt>
      <trkpt lat="43.65532" lon="6.26763">
        <ele>887</ele>
        <time>2025-05-14T14:52:50.000Z</time>
      </trkpt>
      <trkpt lat="43.65517" lon="6.2679">
        <ele>888</ele>
        <time>2025-05-14T14:53:11.000Z</time>
      </trkpt>
      <trkpt lat="43.65502" lon="6.26816">
        <ele>890</ele>
        <time>2025-05-14T14:53:32.000Z</time>
      </trkpt>
      <trkpt lat="43.65489" lon="6.26842">
        <ele>891</ele>
        <time>2025-05-14T14:53:53.000Z</time>
      </trkpt>
      <trkpt lat="43.65475" lon="6.26869">
        <ele>892</ele>
        <time>2025-05-14T14:54:14.000Z</time>
      </trkpt>
      <trkpt lat="43.6546" lon="6.26898">
        <ele>893</ele>
        <time>2025-05-14T14:54:35.000Z</time>
      </trkpt>
      <trkpt lat="43.65448" lon="6.26926">
        <ele>894</ele>
        <time>2025-05-14T14:54:56.000Z</time>
      </trkpt>
      <trkpt lat="43.65439" lon="6.26956">
        <ele>895</ele>
        <time>2025-05-14T14:55:14.000Z</time>
      </trkpt>
      <trkpt lat="43.65429" lon="6.26984">
        <ele>896</ele>
        <time>2025-05-14T14:55:32.000Z</time>
      </trkpt>
      <trkpt lat="43.65418" lon="6.27011">
        <ele>896</ele>
        <time>2025-05-14T14:55:50.000Z</time>
      </trkpt>
      <trkpt lat="43.65409" lon="6.27039">
        <ele>897</ele>
        <time>2025-05-14T14:56:08.000Z</time>
      </trkpt>
      <trkpt lat="43.65398" lon="6.27068">
        <ele>897</ele>
        <time>2025-05-14T14:56:29.000Z</time>
      </trkpt>
      <trkpt lat="43.65387" lon="6.27098">
        <ele>898</ele>
        <time>2025-05-14T14:56:50.000Z</time>
      </trkpt>
      <trkpt lat="43.6538" lon="6.27129">
        <ele>898</ele>
        <time>2025-05-14T14:57:14.000Z</time>
      </trkpt>
      <trkpt lat="43.65376" lon="6.27161">
        <ele>898</ele>
        <time>2025-05-14T14:57:38.000Z</time>
      </trkpt>
      <trkpt lat="43.65367" lon="6.27191">
        <ele>898</ele>
        <time>2025-05-14T14:57:58.000Z</time>
      </trkpt>
      <trkpt lat="43.65361" lon="6.27222">
        <ele>898</ele>
        <time>2025-05-14T14:58:19.000Z</time>
      </trkpt>
      <trkpt lat="43.6536" lon="6.27254">
        <ele>899</ele>
        <time>2025-05-14T14:58:40.000Z</time>
      </trkpt>
      <trkpt lat="43.65364" lon="6.27285">
        <ele>899</ele>
        <time>2025-05-14T15:01:01.000Z</time>
      </trkpt>
      <trkpt lat="43.65371" lon="6.27312">
        <ele>900</ele>
        <time>2025-05-14T15:01:55.000Z</time>
      </trkpt>
      <trkpt lat="43.6536" lon="6.27338">
        <ele>901</ele>
        <time>2025-05-14T15:02:22.000Z</time>
      </trkpt>
      <trkpt lat="43.6535" lon="6.27367">
        <ele>900</ele>
        <time>2025-05-14T15:02:43.000Z</time>
      </trkpt>
      <trkpt lat="43.65344" lon="6.27399">
        <ele>899</ele>
        <time>2025-05-14T15:03:04.000Z</time>
      </trkpt>
      <trkpt lat="43.65346" lon="6.2743">
        <ele>899</ele>
        <time>2025-05-14T15:03:22.000Z</time>
      </trkpt>
      <trkpt lat="43.65348" lon="6.27456">
        <ele>900</ele>
        <time>2025-05-14T15:03:46.000Z</time>
      </trkpt>
      <trkpt lat="43.65368" lon="6.27456">
        <ele>902</ele>
        <time>2025-05-14T15:05:16.000Z</time>
      </trkpt>
      <trkpt lat="43.65386" lon="6.27438">
        <ele>904</ele>
        <time>2025-05-14T15:05:49.000Z</time>
      </trkpt>
      <trkpt lat="43.65402" lon="6.27416">
        <ele>904</ele>
        <time>2025-05-14T15:06:28.000Z</time>
      </trkpt>
      <trkpt lat="43.65419" lon="6.27395">
        <ele>904</ele>
        <time>2025-05-14T15:07:25.000Z</time>
      </trkpt>
      <trkpt lat="43.65438" lon="6.27376">
        <ele>904</ele>
        <time>2025-05-14T15:08:28.000Z</time>
      </trkpt>
      <trkpt lat="43.65458" lon="6.27356">
        <ele>905</ele>
        <time>2025-05-14T15:09:40.000Z</time>
      </trkpt>
      <trkpt lat="43.65479" lon="6.27347">
        <ele>907</ele>
        <time>2025-05-14T15:10:40.000Z</time>
      </trkpt>
      <trkpt lat="43.65494" lon="6.27324">
        <ele>908</ele>
        <time>2025-05-14T15:11:34.000Z</time>
      </trkpt>
      <trkpt lat="43.65493" lon="6.27301">
        <ele>910</ele>
        <time>2025-05-14T15:12:16.000Z</time>
      </trkpt>
      <trkpt lat="43.65486" lon="6.27324">
        <ele>912</ele>
        <time>2025-05-14T15:14:58.000Z</time>
      </trkpt>
      <trkpt lat="43.65471" lon="6.27347">
        <ele>913</ele>
        <time>2025-05-14T15:15:28.000Z</time>
      </trkpt>
      <trkpt lat="43.6545" lon="6.27356">
        <ele>914</ele>
        <time>2025-05-14T15:16:01.000Z</time>
      </trkpt>
      <trkpt lat="43.65432" lon="6.27377">
        <ele>915</ele>
        <time>2025-05-14T15:19:13.000Z</time>
      </trkpt>
      <trkpt lat="43.65415" lon="6.27397">
        <ele>915</ele>
        <time>2025-05-14T15:19:52.000Z</time>
      </trkpt>
      <trkpt lat="43.65396" lon="6.27414">
        <ele>913</ele>
        <time>2025-05-14T15:20:19.000Z</time>
      </trkpt>
      <trkpt lat="43.65381" lon="6.2744">
        <ele>911</ele>
        <time>2025-05-14T15:20:49.000Z</time>
      </trkpt>
      <trkpt lat="43.65363" lon="6.27458">
        <ele>910</ele>
        <time>2025-05-14T15:21:28.000Z</time>
      </trkpt>
      <trkpt lat="43.65345" lon="6.27452">
        <ele>908</ele>
        <time>2025-05-14T15:23:04.000Z</time>
      </trkpt>
      <trkpt lat="43.65342" lon="6.27422">
        <ele>908</ele>
        <time>2025-05-14T15:23:28.000Z</time>
      </trkpt>
      <trkpt lat="43.65327" lon="6.27404">
        <ele>907</ele>
        <time>2025-05-14T15:23:49.000Z</time>
      </trkpt>
      <trkpt lat="43.65308" lon="6.27419">
        <ele>906</ele>
        <time>2025-05-14T15:24:07.000Z</time>
      </trkpt>
      <trkpt lat="43.65288" lon="6.27437">
        <ele>906</ele>
        <time>2025-05-14T15:24:28.000Z</time>
      </trkpt>
      <trkpt lat="43.6527" lon="6.27457">
        <ele>906</ele>
        <time>2025-05-14T15:24:49.000Z</time>
      </trkpt>
      <trkpt lat="43.65248" lon="6.27475">
        <ele>902</ele>
        <time>2025-05-14T15:25:07.000Z</time>
      </trkpt>
    </trkseg>
  </trk>
</gpx>